BAW273 EGLL-TBPB
Flight info
| Callsign | BAW273 |
|---|---|
| Flight time | 3h 44m |
| Altitude | 26000 |
| Route | CPT Q63 MALBY SL2 C/KESUP/N0733F260F450 SL2 C/LESLU/M200F450F600 DCT 4849N01443W 4649N02000W 4500N02353W 4136N03000W 3422N04000W 2700N04748W 2438N05000W 1800N05539W/N0656F390 DCT BGI |
| Aircraft | CONC/H-SDFHIRY/C |
Departure
| Time | 2026-05-05 14:27 |
|---|---|
| Airport | London Heathrow Airport (EGLL) |
Arrival
| Time | 2026-05-05 18:12 |
|---|---|
| Airport | Grantley Adams International Airport (TBPB) |
| Time | Latitude | Longitude | Altitude | Speed | Heading |
|---|---|---|---|---|---|
| 2026-05-05 13:32 | 51.46074 | -0.44810 | 95 ft | 0 kts | 131° |
| 2026-05-05 14:10 | 51.46075 | -0.44811 | 94 ft | 2 kts | 131° |
| 2026-05-05 14:10 | 51.46092 | -0.44843 | 94 ft | 4 kts | 126° |
| 2026-05-05 14:10 | 51.46106 | -0.44880 | 94 ft | 4 kts | 116° |
| 2026-05-05 14:10 | 51.46113 | -0.44919 | 94 ft | 4 kts | 91° |
| 2026-05-05 14:11 | 51.46106 | -0.44948 | 94 ft | 2 kts | 42° |
| 2026-05-05 14:11 | 51.46106 | -0.44949 | 94 ft | 0 kts | 41° |
| 2026-05-05 14:15 | 51.46108 | -0.44946 | 94 ft | 2 kts | 41° |
| 2026-05-05 14:15 | 51.46126 | -0.44920 | 94 ft | 5 kts | 42° |
| 2026-05-05 14:15 | 51.46160 | -0.44872 | 94 ft | 8 kts | 41° |
| 2026-05-05 14:15 | 51.46211 | -0.44799 | 94 ft | 11 kts | 42° |
| 2026-05-05 14:16 | 51.46270 | -0.44715 | 94 ft | 11 kts | 40° |
| 2026-05-05 14:16 | 51.46320 | -0.44730 | 94 ft | 8 kts | 304° |
| 2026-05-05 14:16 | 51.46326 | -0.44805 | 94 ft | 8 kts | 270° |
| 2026-05-05 14:16 | 51.46325 | -0.44899 | 94 ft | 7 kts | 269° |
| 2026-05-05 14:17 | 51.46325 | -0.44998 | 94 ft | 11 kts | 269° |
| 2026-05-05 14:17 | 51.46324 | -0.45122 | 94 ft | 10 kts | 269° |
| 2026-05-05 14:17 | 51.46324 | -0.45258 | 94 ft | 14 kts | 270° |
| 2026-05-05 14:17 | 51.46324 | -0.45428 | 94 ft | 17 kts | 270° |
| 2026-05-05 14:18 | 51.46326 | -0.45615 | 94 ft | 16 kts | 273° |
| 2026-05-05 14:18 | 51.46327 | -0.45729 | 94 ft | 10 kts | 269° |
| 2026-05-05 14:18 | 51.46326 | -0.45852 | 94 ft | 12 kts | 269° |
| 2026-05-05 14:18 | 51.46326 | -0.45989 | 94 ft | 13 kts | 270° |
| 2026-05-05 14:19 | 51.46325 | -0.46145 | 94 ft | 15 kts | 270° |
| 2026-05-05 14:19 | 51.46325 | -0.46325 | 94 ft | 15 kts | 270° |
| 2026-05-05 14:19 | 51.46324 | -0.46460 | 94 ft | 14 kts | 270° |
| 2026-05-05 14:19 | 51.46324 | -0.46630 | 94 ft | 17 kts | 270° |
| 2026-05-05 14:20 | 51.46323 | -0.46835 | 94 ft | 20 kts | 270° |
| 2026-05-05 14:20 | 51.46322 | -0.47041 | 95 ft | 15 kts | 270° |
| 2026-05-05 14:20 | 51.46322 | -0.47216 | 94 ft | 17 kts | 270° |
| 2026-05-05 14:20 | 51.46329 | -0.47375 | 94 ft | 15 kts | 284° |
| 2026-05-05 14:21 | 51.46339 | -0.47535 | 94 ft | 15 kts | 268° |
| 2026-05-05 14:21 | 51.46329 | -0.47661 | 95 ft | 10 kts | 244° |
| 2026-05-05 14:21 | 51.46289 | -0.47771 | 94 ft | 13 kts | 240° |
| 2026-05-05 14:21 | 51.46251 | -0.47917 | 94 ft | 16 kts | 264° |
| 2026-05-05 14:22 | 51.46250 | -0.48092 | 94 ft | 17 kts | 270° |
| 2026-05-05 14:22 | 51.46250 | -0.48303 | 94 ft | 20 kts | 270° |
| 2026-05-05 14:22 | 51.46250 | -0.48515 | 94 ft | 16 kts | 270° |
| 2026-05-05 14:22 | 51.46268 | -0.48649 | 94 ft | 12 kts | 299° |
| 2026-05-05 14:23 | 51.46295 | -0.48702 | 94 ft | 7 kts | 318° |
| 2026-05-05 14:23 | 51.46345 | -0.48746 | 94 ft | 10 kts | 342° |
| 2026-05-05 14:23 | 51.46421 | -0.48755 | 95 ft | 10 kts | 360° |
| 2026-05-05 14:23 | 51.46472 | -0.48722 | 94 ft | 7 kts | 53° |
| 2026-05-05 14:24 | 51.46479 | -0.48674 | 94 ft | 3 kts | 90° |
| 2026-05-05 14:24 | 51.46479 | -0.48670 | 94 ft | 0 kts | 90° |
| 2026-05-05 14:26 | 51.46479 | -0.48668 | 94 ft | 3 kts | 90° |
| 2026-05-05 14:26 | 51.46480 | -0.48241 | 94 ft | 77 kts | 89° |
| 2026-05-05 14:26 | 51.46485 | -0.46944 | 94 ft | 153 kts | 90° |
| 2026-05-05 14:27 | 51.46496 | -0.44854 | 95 ft | 219 kts | 88° |
| 2026-05-05 14:27 | 51.46501 | -0.42246 | 433 ft | 243 kts | 88° |
| 2026-05-05 14:27 | 51.46405 | -0.39464 | 1216 ft | 248 kts | 104° |
| 2026-05-05 14:27 | 51.45786 | -0.36954 | 1738 ft | 241 kts | 124° |
| 2026-05-05 14:28 | 51.44640 | -0.34997 | 1906 ft | 245 kts | 146° |
| 2026-05-05 14:28 | 51.43066 | -0.33943 | 2031 ft | 250 kts | 178° |
| 2026-05-05 14:28 | 51.41390 | -0.34425 | 2213 ft | 253 kts | 213° |
| 2026-05-05 14:28 | 51.40160 | -0.36375 | 2412 ft | 253 kts | 250° |
| 2026-05-05 14:29 | 51.39825 | -0.39094 | 2598 ft | 252 kts | 274° |
| 2026-05-05 14:29 | 51.39865 | -0.41945 | 2786 ft | 259 kts | 275° |
| 2026-05-05 14:29 | 51.40008 | -0.44834 | 3160 ft | 260 kts | 281° |
| 2026-05-05 14:29 | 51.40264 | -0.47707 | 3574 ft | 262 kts | 278° |
| 2026-05-05 14:30 | 51.40521 | -0.50605 | 3980 ft | 264 kts | 287° |
| 2026-05-05 14:30 | 51.41020 | -0.53449 | 4415 ft | 267 kts | 290° |
| 2026-05-05 14:30 | 51.41558 | -0.56272 | 5037 ft | 263 kts | 284° |
| 2026-05-05 14:30 | 51.41932 | -0.59136 | 5707 ft | 264 kts | 284° |
| 2026-05-05 14:31 | 51.42305 | -0.62064 | 6389 ft | 273 kts | 284° |
| 2026-05-05 14:31 | 51.42683 | -0.65116 | 7261 ft | 286 kts | 283° |
| 2026-05-05 14:31 | 51.43063 | -0.68354 | 8290 ft | 305 kts | 282° |
| 2026-05-05 14:31 | 51.43440 | -0.71760 | 9455 ft | 323 kts | 281° |
| 2026-05-05 14:32 | 51.43835 | -0.75418 | 10494 ft | 348 kts | 281° |
| 2026-05-05 14:32 | 51.44273 | -0.79425 | 10979 ft | 379 kts | 281° |
| 2026-05-05 14:32 | 51.44754 | -0.83692 | 11526 ft | 396 kts | 281° |
| 2026-05-05 14:32 | 51.45273 | -0.88071 | 12182 ft | 404 kts | 282° |
| 2026-05-05 14:33 | 51.45822 | -0.92529 | 12870 ft | 411 kts | 282° |
| 2026-05-05 14:33 | 51.46387 | -0.97071 | 13539 ft | 417 kts | 282° |
| 2026-05-05 14:33 | 51.46949 | -1.01601 | 14226 ft | 422 kts | 281° |
| 2026-05-05 14:33 | 51.47524 | -1.06313 | 14953 ft | 427 kts | 281° |
| 2026-05-05 14:34 | 51.48074 | -1.11027 | 15614 ft | 433 kts | 280° |
| 2026-05-05 14:34 | 51.48604 | -1.15750 | 16261 ft | 438 kts | 280° |
| 2026-05-05 14:34 | 51.49139 | -1.20590 | 16995 ft | 442 kts | 280° |
| 2026-05-05 14:34 | 51.49684 | -1.25475 | 17725 ft | 447 kts | 280° |
| 2026-05-05 14:35 | 51.50251 | -1.30406 | 18412 ft | 451 kts | 280° |
| 2026-05-05 14:35 | 51.50845 | -1.35367 | 19094 ft | 455 kts | 280° |
| 2026-05-05 14:35 | 51.51455 | -1.40376 | 19764 ft | 459 kts | 280° |
| 2026-05-05 14:35 | 51.52072 | -1.45430 | 20394 ft | 463 kts | 280° |
| 2026-05-05 14:36 | 51.52700 | -1.50525 | 21055 ft | 466 kts | 281° |
| 2026-05-05 14:36 | 51.53348 | -1.55665 | 21748 ft | 470 kts | 281° |
| 2026-05-05 14:36 | 51.54008 | -1.60840 | 22471 ft | 474 kts | 281° |
| 2026-05-05 14:36 | 51.54672 | -1.66057 | 23213 ft | 479 kts | 281° |
| 2026-05-05 14:37 | 51.55327 | -1.71391 | 23744 ft | 493 kts | 280° |
| 2026-05-05 14:37 | 51.55960 | -1.76889 | 24258 ft | 506 kts | 279° |
| 2026-05-05 14:37 | 51.56371 | -1.80611 | 24602 ft | 515 kts | 279° |
| 2026-05-05 14:37 | 51.57200 | -1.88233 | 25333 ft | 529 kts | 278° |
| 2026-05-05 14:38 | 51.57846 | -1.94128 | 25737 ft | 540 kts | 279° |
| 2026-05-05 14:38 | 51.58520 | -2.00099 | 25976 ft | 545 kts | 278° |
| 2026-05-05 14:38 | 51.58891 | -2.04119 | 25989 ft | 549 kts | 273° |
| 2026-05-05 14:38 | 51.58781 | -2.10239 | 25983 ft | 548 kts | 259° |
| 2026-05-05 14:39 | 51.58028 | -2.16252 | 25992 ft | 551 kts | 256° |
| 2026-05-05 14:39 | 51.57086 | -2.22245 | 25992 ft | 554 kts | 254° |
| 2026-05-05 14:39 | 51.56079 | -2.28211 | 25993 ft | 553 kts | 253° |
| 2026-05-05 14:39 | 51.55044 | -2.34163 | 25993 ft | 553 kts | 253° |
| 2026-05-05 14:40 | 51.53994 | -2.40112 | 25993 ft | 554 kts | 253° |
| 2026-05-05 14:40 | 51.52936 | -2.46081 | 25993 ft | 554 kts | 253° |
| 2026-05-05 14:40 | 51.51882 | -2.52035 | 25994 ft | 554 kts | 253° |
| 2026-05-05 14:40 | 51.50849 | -2.57924 | 25995 ft | 555 kts | 253° |
| 2026-05-05 14:41 | 51.49818 | -2.63903 | 25995 ft | 555 kts | 254° |
| 2026-05-05 14:41 | 51.48813 | -2.69880 | 25995 ft | 556 kts | 254° |
| 2026-05-05 14:41 | 51.47825 | -2.75879 | 25996 ft | 556 kts | 255° |
| 2026-05-05 14:41 | 51.46843 | -2.81897 | 25998 ft | 557 kts | 255° |
| 2026-05-05 14:42 | 51.45865 | -2.87903 | 26000 ft | 557 kts | 254° |
| 2026-05-05 14:42 | 51.44870 | -2.93912 | 26001 ft | 557 kts | 254° |
| 2026-05-05 14:42 | 51.43861 | -2.99904 | 26004 ft | 557 kts | 254° |
| 2026-05-05 14:42 | 51.42842 | -3.05902 | 26008 ft | 558 kts | 254° |
| 2026-05-05 14:43 | 51.41818 | -3.11899 | 26012 ft | 558 kts | 254° |
| 2026-05-05 14:43 | 51.40805 | -3.17816 | 26017 ft | 558 kts | 254° |
| 2026-05-05 14:43 | 51.39781 | -3.23801 | 26021 ft | 558 kts | 254° |
| 2026-05-05 14:43 | 51.38758 | -3.29807 | 26023 ft | 558 kts | 254° |
| 2026-05-05 14:44 | 51.37736 | -3.35799 | 26025 ft | 558 kts | 254° |
| 2026-05-05 14:44 | 51.36705 | -3.41788 | 26025 ft | 558 kts | 254° |
| 2026-05-05 14:44 | 51.35665 | -3.47777 | 26029 ft | 558 kts | 253° |
| 2026-05-05 14:44 | 51.34619 | -3.53764 | 26219 ft | 560 kts | 253° |
| 2026-05-05 14:45 | 51.33566 | -3.59773 | 26786 ft | 563 kts | 256° |
| 2026-05-05 14:45 | 51.32926 | -3.65972 | 27265 ft | 569 kts | 264° |
| 2026-05-05 14:45 | 51.32657 | -3.72335 | 27700 ft | 574 kts | 267° |
| 2026-05-05 14:45 | 51.32548 | -3.78676 | 28048 ft | 578 kts | 269° |
| 2026-05-05 14:46 | 51.32555 | -3.85134 | 28528 ft | 582 kts | 270° |
| 2026-05-05 14:46 | 51.32624 | -3.91641 | 29017 ft | 588 kts | 271° |
| 2026-05-05 14:46 | 51.32721 | -3.98228 | 29385 ft | 593 kts | 271° |
| 2026-05-05 14:46 | 51.32827 | -4.04853 | 29706 ft | 598 kts | 271° |
| 2026-05-05 14:47 | 51.32934 | -4.11532 | 30026 ft | 602 kts | 271° |
| 2026-05-05 14:47 | 51.33033 | -4.18164 | 30393 ft | 605 kts | 271° |
| 2026-05-05 14:47 | 51.33107 | -4.24917 | 30777 ft | 608 kts | 270° |
| 2026-05-05 14:47 | 51.33153 | -4.31701 | 31213 ft | 611 kts | 270° |
| 2026-05-05 14:48 | 51.33183 | -4.38513 | 31627 ft | 614 kts | 270° |
| 2026-05-05 14:48 | 51.33205 | -4.45357 | 32092 ft | 618 kts | 270° |
| 2026-05-05 14:48 | 51.33223 | -4.52276 | 32356 ft | 625 kts | 270° |
| 2026-05-05 14:48 | 51.33239 | -4.59260 | 32663 ft | 631 kts | 270° |
| 2026-05-05 14:49 | 51.33262 | -4.66326 | 33055 ft | 640 kts | 270° |
| 2026-05-05 14:49 | 51.33292 | -4.73499 | 33528 ft | 650 kts | 270° |
| 2026-05-05 14:49 | 51.33319 | -4.80791 | 33990 ft | 661 kts | 270° |
| 2026-05-05 14:49 | 51.33334 | -4.88136 | 34431 ft | 673 kts | 270° |
| 2026-05-05 14:50 | 51.33172 | -4.95695 | 34855 ft | 685 kts | 266° |
| 2026-05-05 14:50 | 51.32786 | -5.03363 | 35251 ft | 696 kts | 264° |
| 2026-05-05 14:50 | 51.32269 | -5.11130 | 35634 ft | 707 kts | 263° |
| 2026-05-05 14:50 | 51.31633 | -5.18982 | 35995 ft | 718 kts | 262° |
| 2026-05-05 14:51 | 51.30896 | -5.26930 | 36344 ft | 728 kts | 261° |
| 2026-05-05 14:51 | 51.30091 | -5.34980 | 36683 ft | 739 kts | 261° |
| 2026-05-05 14:51 | 51.29237 | -5.43135 | 37013 ft | 749 kts | 261° |
| 2026-05-05 14:51 | 51.28349 | -5.51420 | 37355 ft | 760 kts | 260° |
| 2026-05-05 14:52 | 51.27452 | -5.59686 | 37689 ft | 770 kts | 260° |
| 2026-05-05 14:52 | 51.26523 | -5.68175 | 38030 ft | 781 kts | 260° |
| 2026-05-05 14:52 | 51.25582 | -5.76783 | 38375 ft | 793 kts | 260° |
| 2026-05-05 14:52 | 51.24637 | -5.85511 | 38737 ft | 804 kts | 261° |
| 2026-05-05 14:53 | 51.23690 | -5.94392 | 39082 ft | 817 kts | 261° |
| 2026-05-05 14:53 | 51.22742 | -6.03394 | 39428 ft | 828 kts | 261° |
| 2026-05-05 14:53 | 51.21786 | -6.12527 | 39775 ft | 841 kts | 261° |
| 2026-05-05 14:53 | 51.20809 | -6.21800 | 40101 ft | 854 kts | 261° |
| 2026-05-05 14:54 | 51.19801 | -6.31194 | 40413 ft | 866 kts | 261° |
| 2026-05-05 14:54 | 51.18761 | -6.40735 | 40714 ft | 879 kts | 260° |
| 2026-05-05 14:54 | 51.17689 | -6.50396 | 41005 ft | 891 kts | 260° |
| 2026-05-05 14:54 | 51.16605 | -6.60067 | 41284 ft | 903 kts | 260° |
| 2026-05-05 14:55 | 51.15481 | -6.69981 | 41556 ft | 914 kts | 260° |
| 2026-05-05 14:55 | 51.14334 | -6.80013 | 41834 ft | 925 kts | 260° |
| 2026-05-05 14:55 | 51.13169 | -6.90148 | 42083 ft | 936 kts | 260° |
| 2026-05-05 14:55 | 51.11984 | -7.00397 | 42325 ft | 947 kts | 260° |
| 2026-05-05 14:56 | 51.10779 | -7.10770 | 42555 ft | 958 kts | 259° |
| 2026-05-05 14:56 | 51.09557 | -7.21239 | 42795 ft | 968 kts | 259° |
| 2026-05-05 14:56 | 51.08309 | -7.31848 | 43021 ft | 977 kts | 259° |
| 2026-05-05 14:56 | 51.07043 | -7.42496 | 43253 ft | 983 kts | 259° |
| 2026-05-05 14:57 | 51.05527 | -7.53157 | 43428 ft | 988 kts | 255° |
| 2026-05-05 14:57 | 51.03702 | -7.63696 | 43592 ft | 992 kts | 253° |
| 2026-05-05 14:57 | 51.01693 | -7.74195 | 43774 ft | 996 kts | 252° |
| 2026-05-05 14:57 | 50.99588 | -7.84564 | 43948 ft | 1000 kts | 252° |
| 2026-05-05 14:58 | 50.97364 | -7.95056 | 44116 ft | 1004 kts | 251° |
| 2026-05-05 14:58 | 50.95064 | -8.05564 | 44277 ft | 1008 kts | 251° |
| 2026-05-05 14:58 | 50.92705 | -8.16042 | 44430 ft | 1012 kts | 250° |
| 2026-05-05 14:58 | 50.90285 | -8.26541 | 44579 ft | 1015 kts | 250° |
| 2026-05-05 14:59 | 50.87810 | -8.37010 | 44725 ft | 1018 kts | 249° |
| 2026-05-05 14:59 | 50.85273 | -8.47501 | 44870 ft | 1021 kts | 249° |
| 2026-05-05 14:59 | 50.82675 | -8.57988 | 45011 ft | 1024 kts | 249° |
| 2026-05-05 14:59 | 50.80012 | -8.68477 | 45148 ft | 1028 kts | 248° |
| 2026-05-05 15:00 | 50.77325 | -8.78801 | 45281 ft | 1031 kts | 248° |
| 2026-05-05 15:00 | 50.75439 | -8.85850 | 45369 ft | 1033 kts | 247° |
| 2026-05-05 15:00 | 50.71600 | -8.99626 | 45541 ft | 1037 kts | 246° |
| 2026-05-05 15:00 | 50.68594 | -9.10010 | 45669 ft | 1040 kts | 245° |
| 2026-05-05 15:01 | 50.65528 | -9.20361 | 45798 ft | 1043 kts | 245° |
| 2026-05-05 15:01 | 50.62411 | -9.30718 | 45927 ft | 1046 kts | 245° |
| 2026-05-05 15:01 | 50.59255 | -9.41075 | 46054 ft | 1049 kts | 245° |
| 2026-05-05 15:01 | 50.56065 | -9.51459 | 46181 ft | 1052 kts | 244° |
| 2026-05-05 15:02 | 50.52859 | -9.61827 | 46305 ft | 1056 kts | 244° |
| 2026-05-05 15:02 | 50.49636 | -9.72217 | 46430 ft | 1059 kts | 244° |
| 2026-05-05 15:02 | 50.46401 | -9.82625 | 46554 ft | 1062 kts | 244° |
| 2026-05-05 15:02 | 50.43202 | -9.92912 | 46683 ft | 1065 kts | 244° |
| 2026-05-05 15:03 | 50.39959 | -10.03378 | 46814 ft | 1068 kts | 245° |
| 2026-05-05 15:03 | 50.36722 | -10.13870 | 46946 ft | 1071 kts | 245° |
| 2026-05-05 15:03 | 50.33485 | -10.24388 | 47076 ft | 1075 kts | 245° |
| 2026-05-05 15:03 | 50.30234 | -10.34955 | 47208 ft | 1078 kts | 245° |
| 2026-05-05 15:04 | 50.26969 | -10.45532 | 47340 ft | 1080 kts | 245° |
| 2026-05-05 15:04 | 50.23684 | -10.56096 | 47469 ft | 1083 kts | 244° |
| 2026-05-05 15:04 | 50.20367 | -10.66679 | 47600 ft | 1086 kts | 244° |
| 2026-05-05 15:04 | 50.17015 | -10.77289 | 47735 ft | 1089 kts | 244° |
| 2026-05-05 15:05 | 50.10249 | -10.98498 | 48006 ft | 1096 kts | 244° |
| 2026-05-05 15:05 | 50.06822 | -11.09152 | 48142 ft | 1099 kts | 244° |
| 2026-05-05 15:05 | 50.03385 | -11.19793 | 48276 ft | 1102 kts | 244° |
| 2026-05-05 15:06 | 49.99928 | -11.30453 | 48409 ft | 1106 kts | 244° |
| 2026-05-05 15:06 | 49.96450 | -11.41143 | 48538 ft | 1110 kts | 244° |
| 2026-05-05 15:06 | 49.92959 | -11.51842 | 48672 ft | 1113 kts | 244° |
| 2026-05-05 15:06 | 49.89442 | -11.62591 | 48806 ft | 1117 kts | 243° |
| 2026-05-05 15:07 | 49.85957 | -11.73205 | 48942 ft | 1120 kts | 243° |
| 2026-05-05 15:07 | 49.82415 | -11.83960 | 49078 ft | 1124 kts | 243° |
| 2026-05-05 15:07 | 49.78845 | -11.94748 | 49208 ft | 1127 kts | 243° |
| 2026-05-05 15:07 | 49.75259 | -12.05542 | 49327 ft | 1129 kts | 243° |
| 2026-05-05 15:08 | 49.71650 | -12.16348 | 49437 ft | 1132 kts | 243° |
| 2026-05-05 15:08 | 49.68027 | -12.27145 | 49538 ft | 1134 kts | 243° |
| 2026-05-05 15:08 | 49.64380 | -12.37961 | 49632 ft | 1136 kts | 243° |
| 2026-05-05 15:09 | 49.57025 | -12.59626 | 49801 ft | 1139 kts | 243° |
| 2026-05-05 15:09 | 49.49627 | -12.81228 | 49948 ft | 1142 kts | 242° |
| 2026-05-05 15:10 | 49.42162 | -13.02850 | 50077 ft | 1144 kts | 242° |
| 2026-05-05 15:10 | 49.34659 | -13.24408 | 50185 ft | 1146 kts | 242° |
| 2026-05-05 15:11 | 49.27096 | -13.45962 | 50272 ft | 1149 kts | 242° |
| 2026-05-05 15:11 | 49.19540 | -13.67314 | 50376 ft | 1148 kts | 242° |
| 2026-05-05 15:12 | 49.11841 | -13.88726 | 50457 ft | 1148 kts | 241° |
| 2026-05-05 15:12 | 49.04015 | -14.09949 | 50523 ft | 1148 kts | 241° |
| 2026-05-05 15:13 | 48.96152 | -14.31130 | 50579 ft | 1148 kts | 241° |
| 2026-05-05 15:13 | 48.88334 | -14.52302 | 50634 ft | 1147 kts | 241° |
| 2026-05-05 15:14 | 48.80694 | -14.73582 | 50683 ft | 1147 kts | 242° |
| 2026-05-05 15:14 | 48.73324 | -14.94882 | 50726 ft | 1147 kts | 243° |
| 2026-05-05 15:15 | 48.66031 | -15.16357 | 50765 ft | 1147 kts | 243° |
| 2026-05-05 15:15 | 48.58762 | -15.37839 | 50801 ft | 1147 kts | 243° |
| 2026-05-05 15:16 | 48.51444 | -15.59232 | 50836 ft | 1147 kts | 243° |
| 2026-05-05 15:16 | 48.43979 | -15.80483 | 50887 ft | 1146 kts | 242° |
| 2026-05-05 15:17 | 48.36439 | -16.01488 | 50925 ft | 1146 kts | 242° |
| 2026-05-05 15:17 | 48.28787 | -16.22506 | 50966 ft | 1146 kts | 242° |
| 2026-05-05 15:18 | 48.21100 | -16.43443 | 51008 ft | 1146 kts | 242° |
| 2026-05-05 15:18 | 48.13409 | -16.64330 | 51051 ft | 1145 kts | 242° |
| 2026-05-05 15:19 | 48.05722 | -16.85225 | 51099 ft | 1145 kts | 242° |
| 2026-05-05 15:19 | 47.98001 | -17.06090 | 51151 ft | 1145 kts | 242° |
| 2026-05-05 15:20 | 47.90236 | -17.26829 | 51209 ft | 1145 kts | 241° |
| 2026-05-05 15:20 | 47.82460 | -17.47369 | 51269 ft | 1145 kts | 241° |
| 2026-05-05 15:21 | 47.74596 | -17.67959 | 51328 ft | 1145 kts | 241° |
| 2026-05-05 15:21 | 47.66693 | -17.88510 | 51385 ft | 1145 kts | 241° |
| 2026-05-05 15:22 | 47.58766 | -18.09002 | 51439 ft | 1145 kts | 240° |
| 2026-05-05 15:22 | 47.50814 | -18.29428 | 51490 ft | 1145 kts | 240° |
| 2026-05-05 15:23 | 47.42826 | -18.49788 | 51540 ft | 1144 kts | 240° |
| 2026-05-05 15:23 | 47.34795 | -18.70086 | 51588 ft | 1144 kts | 240° |
| 2026-05-05 15:24 | 47.26776 | -18.90189 | 51636 ft | 1144 kts | 240° |
| 2026-05-05 15:24 | 47.18683 | -19.10326 | 51682 ft | 1144 kts | 240° |
| 2026-05-05 15:25 | 47.10577 | -19.30438 | 51725 ft | 1144 kts | 240° |
| 2026-05-05 15:25 | 47.02462 | -19.50522 | 51769 ft | 1144 kts | 240° |
| 2026-05-05 15:26 | 46.94308 | -19.70545 | 51812 ft | 1143 kts | 239° |
| 2026-05-05 15:26 | 46.86091 | -19.90446 | 51854 ft | 1143 kts | 239° |
| 2026-05-05 15:27 | 46.77709 | -20.10177 | 51898 ft | 1144 kts | 238° |
| 2026-05-05 15:27 | 46.69196 | -20.29639 | 51943 ft | 1144 kts | 238° |
| 2026-05-05 15:28 | 46.60532 | -20.49072 | 51988 ft | 1144 kts | 237° |
| 2026-05-05 15:28 | 46.53287 | -20.65150 | 52024 ft | 1144 kts | 237° |
| 2026-05-05 15:29 | 46.44528 | -20.84481 | 52067 ft | 1144 kts | 237° |
| 2026-05-05 15:29 | 46.35791 | -21.03772 | 52107 ft | 1144 kts | 237° |
| 2026-05-05 15:30 | 46.25670 | -21.26162 | 52152 ft | 1144 kts | 237° |
| 2026-05-05 15:30 | 46.18399 | -21.42161 | 52183 ft | 1145 kts | 237° |
| 2026-05-05 15:31 | 46.09607 | -21.61303 | 52219 ft | 1145 kts | 237° |
| 2026-05-05 15:31 | 46.00757 | -21.80365 | 52256 ft | 1145 kts | 237° |
| 2026-05-05 15:32 | 45.91859 | -21.99377 | 52293 ft | 1145 kts | 237° |
| 2026-05-05 15:32 | 45.82943 | -22.18320 | 52331 ft | 1145 kts | 236° |
| 2026-05-05 15:33 | 45.74003 | -22.37239 | 52375 ft | 1145 kts | 236° |
| 2026-05-05 15:33 | 45.65037 | -22.56109 | 52418 ft | 1145 kts | 236° |
| 2026-05-05 15:34 | 45.56098 | -22.74777 | 52463 ft | 1145 kts | 236° |
| 2026-05-05 15:34 | 45.47067 | -22.93494 | 52509 ft | 1145 kts | 236° |
| 2026-05-05 15:35 | 45.37988 | -23.12150 | 52554 ft | 1144 kts | 236° |
| 2026-05-05 15:35 | 45.28832 | -23.30670 | 52599 ft | 1144 kts | 235° |
| 2026-05-05 15:36 | 45.19672 | -23.49150 | 52643 ft | 1144 kts | 236° |
| 2026-05-05 15:36 | 45.10551 | -23.67600 | 52686 ft | 1143 kts | 236° |
| 2026-05-05 15:37 | 45.01501 | -23.85931 | 52730 ft | 1143 kts | 236° |
| 2026-05-05 15:37 | 44.92390 | -24.04348 | 52773 ft | 1143 kts | 236° |
| 2026-05-05 15:38 | 44.83212 | -24.22693 | 52819 ft | 1143 kts | 235° |
| 2026-05-05 15:38 | 44.73973 | -24.40908 | 52863 ft | 1143 kts | 235° |
| 2026-05-05 15:39 | 44.64676 | -24.59048 | 52906 ft | 1143 kts | 234° |
| 2026-05-05 15:39 | 44.55345 | -24.77138 | 52947 ft | 1143 kts | 234° |
| 2026-05-05 15:40 | 44.46001 | -24.95210 | 52989 ft | 1143 kts | 234° |
| 2026-05-05 15:40 | 44.36730 | -25.13102 | 53026 ft | 1143 kts | 234° |
| 2026-05-05 15:41 | 44.27362 | -25.31047 | 53071 ft | 1143 kts | 234° |
| 2026-05-05 15:41 | 44.17932 | -25.48960 | 53118 ft | 1143 kts | 234° |
| 2026-05-05 15:42 | 44.08534 | -25.66680 | 53164 ft | 1143 kts | 234° |
| 2026-05-05 15:42 | 43.99055 | -25.84452 | 53211 ft | 1143 kts | 234° |
| 2026-05-05 15:43 | 43.89563 | -26.02164 | 53255 ft | 1144 kts | 234° |
| 2026-05-05 15:43 | 43.80054 | -26.19816 | 53298 ft | 1143 kts | 234° |
| 2026-05-05 15:44 | 43.70507 | -26.37422 | 53341 ft | 1143 kts | 233° |
| 2026-05-05 15:44 | 43.60939 | -26.54949 | 53384 ft | 1143 kts | 233° |
| 2026-05-05 15:45 | 43.51338 | -26.72428 | 53427 ft | 1142 kts | 233° |
| 2026-05-05 15:45 | 43.41716 | -26.89844 | 53470 ft | 1142 kts | 233° |
| 2026-05-05 15:46 | 43.32075 | -27.07200 | 53512 ft | 1142 kts | 233° |
| 2026-05-05 15:46 | 43.22472 | -27.24387 | 53554 ft | 1141 kts | 233° |
| 2026-05-05 15:47 | 43.12763 | -27.41660 | 53594 ft | 1141 kts | 233° |
| 2026-05-05 15:47 | 43.03034 | -27.58865 | 53632 ft | 1141 kts | 233° |
| 2026-05-05 15:48 | 42.93295 | -27.75987 | 53670 ft | 1141 kts | 233° |
| 2026-05-05 15:48 | 42.83595 | -27.92943 | 53707 ft | 1141 kts | 233° |
| 2026-05-05 15:49 | 42.73805 | -28.09962 | 53743 ft | 1140 kts | 232° |
| 2026-05-05 15:49 | 42.64006 | -28.26898 | 53779 ft | 1140 kts | 232° |
| 2026-05-05 15:50 | 42.54171 | -28.43801 | 53814 ft | 1140 kts | 232° |
| 2026-05-05 15:50 | 42.44316 | -28.60640 | 53848 ft | 1140 kts | 232° |
| 2026-05-05 15:51 | 42.34439 | -28.77423 | 53887 ft | 1140 kts | 232° |
| 2026-05-05 15:51 | 42.24538 | -28.94152 | 53927 ft | 1140 kts | 232° |
| 2026-05-05 15:52 | 42.14594 | -29.10861 | 53968 ft | 1140 kts | 232° |
| 2026-05-05 15:52 | 42.04697 | -29.27397 | 54011 ft | 1140 kts | 232° |
| 2026-05-05 15:53 | 41.94666 | -29.43933 | 54058 ft | 1140 kts | 231° |
| 2026-05-05 15:53 | 41.84589 | -29.60416 | 54106 ft | 1140 kts | 231° |
| 2026-05-05 15:54 | 41.74615 | -29.76781 | 54150 ft | 1140 kts | 231° |
| 2026-05-05 15:54 | 41.64596 | -29.93270 | 54192 ft | 1139 kts | 232° |
| 2026-05-05 15:55 | 41.54600 | -30.09723 | 54231 ft | 1139 kts | 232° |
| 2026-05-05 15:55 | 41.44579 | -30.26119 | 54268 ft | 1139 kts | 231° |
| 2026-05-05 15:56 | 41.34489 | -30.42413 | 54302 ft | 1139 kts | 231° |
| 2026-05-05 15:56 | 41.24407 | -30.58524 | 54332 ft | 1139 kts | 231° |
| 2026-05-05 15:57 | 41.14218 | -30.74698 | 54362 ft | 1139 kts | 231° |
| 2026-05-05 15:57 | 41.04041 | -30.90820 | 54391 ft | 1139 kts | 231° |
| 2026-05-05 15:58 | 40.93870 | -31.06923 | 54419 ft | 1139 kts | 231° |
| 2026-05-05 15:58 | 40.83660 | -31.22994 | 54447 ft | 1139 kts | 230° |
| 2026-05-05 15:59 | 40.73497 | -31.38864 | 54474 ft | 1139 kts | 230° |
| 2026-05-05 15:59 | 40.63234 | -31.54781 | 54500 ft | 1139 kts | 230° |
| 2026-05-05 16:00 | 40.52961 | -31.70647 | 54526 ft | 1139 kts | 230° |
| 2026-05-05 16:00 | 40.42652 | -31.86521 | 54552 ft | 1139 kts | 230° |
| 2026-05-05 16:01 | 40.32403 | -32.02215 | 54576 ft | 1139 kts | 230° |
| 2026-05-05 16:01 | 40.22068 | -32.17943 | 54603 ft | 1139 kts | 230° |
| 2026-05-05 16:02 | 40.11700 | -32.33633 | 54630 ft | 1139 kts | 230° |
| 2026-05-05 16:02 | 40.01325 | -32.49264 | 54658 ft | 1139 kts | 230° |
| 2026-05-05 16:03 | 39.90920 | -32.64871 | 54692 ft | 1139 kts | 230° |
| 2026-05-05 16:03 | 39.80577 | -32.80305 | 54728 ft | 1139 kts | 229° |
| 2026-05-05 16:04 | 39.70143 | -32.95790 | 54764 ft | 1138 kts | 229° |
| 2026-05-05 16:04 | 39.59665 | -33.11260 | 54801 ft | 1138 kts | 229° |
| 2026-05-05 16:05 | 39.49190 | -33.26654 | 54839 ft | 1138 kts | 229° |
| 2026-05-05 16:05 | 39.38751 | -33.41922 | 54876 ft | 1138 kts | 229° |
| 2026-05-05 16:06 | 39.28242 | -33.57217 | 54911 ft | 1138 kts | 229° |
| 2026-05-05 16:06 | 39.17718 | -33.72455 | 54943 ft | 1138 kts | 229° |
| 2026-05-05 16:07 | 39.07171 | -33.87651 | 54974 ft | 1138 kts | 229° |
| 2026-05-05 16:07 | 38.96597 | -34.02816 | 55004 ft | 1137 kts | 229° |
| 2026-05-05 16:08 | 38.86009 | -34.17927 | 55034 ft | 1137 kts | 228° |
| 2026-05-05 16:08 | 38.75467 | -34.32901 | 55064 ft | 1137 kts | 228° |
| 2026-05-05 16:09 | 38.64830 | -34.47936 | 55092 ft | 1137 kts | 228° |
| 2026-05-05 16:09 | 38.54201 | -34.62887 | 55120 ft | 1137 kts | 228° |
| 2026-05-05 16:10 | 38.43528 | -34.77831 | 55148 ft | 1137 kts | 228° |
| 2026-05-05 16:10 | 38.32924 | -34.92609 | 55177 ft | 1137 kts | 228° |
| 2026-05-05 16:11 | 38.22236 | -35.07434 | 55209 ft | 1137 kts | 228° |
| 2026-05-05 16:12 | 38.00799 | -35.36960 | 55279 ft | 1137 kts | 227° |
| 2026-05-05 16:13 | 37.73874 | -35.73661 | 55370 ft | 1137 kts | 227° |
| 2026-05-05 16:13 | 37.63139 | -35.88176 | 55405 ft | 1137 kts | 227° |
| 2026-05-05 16:14 | 37.41423 | -36.17339 | 55467 ft | 1137 kts | 227° |
| 2026-05-05 16:15 | 37.19782 | -36.46138 | 55521 ft | 1136 kts | 227° |
| 2026-05-05 16:16 | 36.98001 | -36.74866 | 55569 ft | 1136 kts | 226° |
| 2026-05-05 16:17 | 36.81679 | -36.96228 | 55604 ft | 1136 kts | 226° |
| 2026-05-05 16:18 | 36.65246 | -37.17592 | 55639 ft | 1136 kts | 226° |
| 2026-05-05 16:19 | 36.50635 | -37.36470 | 55672 ft | 1136 kts | 226° |
| 2026-05-05 16:19 | 36.34139 | -37.57653 | 55708 ft | 1136 kts | 226° |
| 2026-05-05 16:20 | 36.12170 | -37.85651 | 55759 ft | 1136 kts | 226° |
| 2026-05-05 16:22 | 35.84526 | -38.20543 | 55822 ft | 1136 kts | 225° |
| 2026-05-05 16:23 | 35.62408 | -38.48196 | 55874 ft | 1136 kts | 225° |
| 2026-05-05 16:23 | 35.45731 | -38.68894 | 55913 ft | 1136 kts | 225° |
| 2026-05-05 16:24 | 35.34596 | -38.82642 | 55940 ft | 1136 kts | 225° |
| 2026-05-05 16:25 | 35.17859 | -39.03199 | 55983 ft | 1136 kts | 225° |
| 2026-05-05 16:25 | 35.01167 | -39.23575 | 56027 ft | 1136 kts | 225° |
| 2026-05-05 16:26 | 34.78734 | -39.50775 | 56089 ft | 1136 kts | 225° |
| 2026-05-05 16:27 | 34.67519 | -39.64321 | 56123 ft | 1136 kts | 225° |
| 2026-05-05 16:27 | 34.56278 | -39.77838 | 56156 ft | 1137 kts | 225° |
| 2026-05-05 16:28 | 34.45063 | -39.91205 | 56190 ft | 1137 kts | 224° |
| 2026-05-05 16:28 | 34.33746 | -40.04603 | 56222 ft | 1138 kts | 224° |
| 2026-05-05 16:29 | 34.22427 | -40.17984 | 56257 ft | 1138 kts | 224° |
| 2026-05-05 16:29 | 34.11096 | -40.31356 | 56290 ft | 1138 kts | 224° |
| 2026-05-05 16:30 | 33.99752 | -40.44665 | 56319 ft | 1138 kts | 224° |
| 2026-05-05 16:30 | 33.88383 | -40.57928 | 56349 ft | 1138 kts | 224° |
| 2026-05-05 16:31 | 33.77007 | -40.71158 | 56377 ft | 1138 kts | 224° |
| 2026-05-05 16:31 | 33.65611 | -40.84382 | 56406 ft | 1138 kts | 224° |
| 2026-05-05 16:32 | 33.54198 | -40.97563 | 56436 ft | 1138 kts | 224° |
| 2026-05-05 16:32 | 33.42779 | -41.10686 | 56465 ft | 1138 kts | 224° |
| 2026-05-05 16:33 | 33.31409 | -41.23714 | 56493 ft | 1138 kts | 224° |
| 2026-05-05 16:33 | 33.19953 | -41.36798 | 56518 ft | 1139 kts | 224° |
| 2026-05-05 16:34 | 33.08470 | -41.49851 | 56547 ft | 1139 kts | 224° |
| 2026-05-05 16:34 | 32.96978 | -41.62864 | 56575 ft | 1139 kts | 224° |
| 2026-05-05 16:35 | 32.85482 | -41.75843 | 56602 ft | 1139 kts | 223° |
| 2026-05-05 16:35 | 32.73950 | -41.88809 | 56628 ft | 1139 kts | 223° |
| 2026-05-05 16:36 | 32.62424 | -42.01714 | 56654 ft | 1139 kts | 223° |
| 2026-05-05 16:36 | 32.50939 | -42.14534 | 56673 ft | 1139 kts | 223° |
| 2026-05-05 16:37 | 32.39370 | -42.27398 | 56694 ft | 1139 kts | 223° |
| 2026-05-05 16:37 | 32.27793 | -42.40218 | 56716 ft | 1139 kts | 223° |
| 2026-05-05 16:38 | 32.16280 | -42.52927 | 56737 ft | 1139 kts | 223° |
| 2026-05-05 16:38 | 32.04677 | -42.65688 | 56760 ft | 1139 kts | 223° |
| 2026-05-05 16:39 | 31.93053 | -42.78422 | 56784 ft | 1139 kts | 223° |
| 2026-05-05 16:39 | 31.81431 | -42.91111 | 56807 ft | 1139 kts | 223° |
| 2026-05-05 16:40 | 31.69803 | -43.03761 | 56832 ft | 1139 kts | 223° |
| 2026-05-05 16:40 | 31.58223 | -43.16311 | 56858 ft | 1139 kts | 223° |
| 2026-05-05 16:41 | 31.46540 | -43.28929 | 56884 ft | 1139 kts | 223° |
| 2026-05-05 16:41 | 31.34864 | -43.41497 | 56910 ft | 1140 kts | 223° |
| 2026-05-05 16:42 | 31.23176 | -43.54031 | 56936 ft | 1140 kts | 223° |
| 2026-05-05 16:42 | 31.11478 | -43.66532 | 56961 ft | 1140 kts | 223° |
| 2026-05-05 16:43 | 30.99753 | -43.79020 | 56986 ft | 1140 kts | 222° |
| 2026-05-05 16:43 | 30.88064 | -43.91425 | 57013 ft | 1140 kts | 222° |
| 2026-05-05 16:44 | 30.76305 | -44.03860 | 57040 ft | 1140 kts | 222° |
| 2026-05-05 16:44 | 30.64601 | -44.16197 | 57068 ft | 1140 kts | 222° |
| 2026-05-05 16:45 | 30.52832 | -44.28559 | 57095 ft | 1140 kts | 222° |
| 2026-05-05 16:45 | 30.41056 | -44.40886 | 57122 ft | 1140 kts | 222° |
| 2026-05-05 16:46 | 30.29321 | -44.53129 | 57150 ft | 1140 kts | 222° |
| 2026-05-05 16:46 | 30.17525 | -44.65393 | 57178 ft | 1140 kts | 222° |
| 2026-05-05 16:47 | 30.05693 | -44.77654 | 57207 ft | 1141 kts | 222° |
| 2026-05-05 16:47 | 29.93867 | -44.89869 | 57239 ft | 1140 kts | 222° |
| 2026-05-05 16:48 | 29.82033 | -45.02050 | 57264 ft | 1140 kts | 221° |
| 2026-05-05 16:48 | 29.70251 | -45.14138 | 57291 ft | 1140 kts | 221° |
| 2026-05-05 16:49 | 29.58403 | -45.26254 | 57318 ft | 1140 kts | 221° |
| 2026-05-05 16:49 | 29.46543 | -45.38343 | 57349 ft | 1139 kts | 221° |
| 2026-05-05 16:50 | 29.34666 | -45.50410 | 57382 ft | 1139 kts | 221° |
| 2026-05-05 16:50 | 29.22788 | -45.62437 | 57416 ft | 1139 kts | 221° |
| 2026-05-05 16:51 | 29.10966 | -45.74370 | 57449 ft | 1139 kts | 221° |
| 2026-05-05 16:51 | 28.99070 | -45.86340 | 57482 ft | 1139 kts | 221° |
| 2026-05-05 16:52 | 28.87169 | -45.98276 | 57513 ft | 1139 kts | 221° |
| 2026-05-05 16:52 | 28.75248 | -46.10195 | 57547 ft | 1138 kts | 221° |
| 2026-05-05 16:53 | 28.63323 | -46.22080 | 57574 ft | 1138 kts | 221° |
| 2026-05-05 16:53 | 28.51454 | -46.33873 | 57601 ft | 1138 kts | 221° |
| 2026-05-05 16:54 | 28.39513 | -46.45700 | 57629 ft | 1138 kts | 221° |
| 2026-05-05 16:54 | 28.27550 | -46.57511 | 57656 ft | 1138 kts | 221° |
| 2026-05-05 16:55 | 28.15603 | -46.69272 | 57682 ft | 1138 kts | 221° |
| 2026-05-05 16:55 | 28.03610 | -46.81040 | 57711 ft | 1138 kts | 221° |
| 2026-05-05 16:56 | 27.91717 | -46.92676 | 57732 ft | 1137 kts | 221° |
| 2026-05-05 16:56 | 27.79749 | -47.04349 | 57751 ft | 1137 kts | 220° |
| 2026-05-05 16:57 | 27.67757 | -47.16010 | 57771 ft | 1136 kts | 220° |
| 2026-05-05 16:57 | 27.55780 | -47.27622 | 57788 ft | 1136 kts | 220° |
| 2026-05-05 16:58 | 27.43766 | -47.39197 | 57806 ft | 1136 kts | 220° |
| 2026-05-05 16:58 | 27.31747 | -47.50735 | 57824 ft | 1135 kts | 220° |
| 2026-05-05 16:59 | 27.19733 | -47.62277 | 57843 ft | 1135 kts | 220° |
| 2026-05-05 16:59 | 27.07803 | -47.73746 | 57862 ft | 1135 kts | 220° |
| 2026-05-05 17:00 | 26.95811 | -47.85262 | 57882 ft | 1134 kts | 220° |
| 2026-05-05 17:00 | 26.83790 | -47.96740 | 57903 ft | 1134 kts | 220° |
| 2026-05-05 17:01 | 26.71737 | -48.08170 | 57928 ft | 1133 kts | 220° |
| 2026-05-05 17:01 | 26.59774 | -48.19481 | 57947 ft | 1132 kts | 220° |
| 2026-05-05 17:02 | 26.47727 | -48.30872 | 57970 ft | 1132 kts | 220° |
| 2026-05-05 17:02 | 26.35709 | -48.42221 | 57992 ft | 1132 kts | 220° |
| 2026-05-05 17:03 | 26.23669 | -48.53535 | 58015 ft | 1132 kts | 220° |
| 2026-05-05 17:03 | 26.11608 | -48.64817 | 58040 ft | 1132 kts | 220° |
| 2026-05-05 17:04 | 25.99607 | -48.76031 | 58066 ft | 1132 kts | 220° |
| 2026-05-05 17:04 | 25.87548 | -48.87283 | 58093 ft | 1132 kts | 220° |
| 2026-05-05 17:05 | 25.75451 | -48.98523 | 58122 ft | 1132 kts | 219° |
| 2026-05-05 17:05 | 25.63361 | -49.09716 | 58148 ft | 1131 kts | 219° |
| 2026-05-05 17:06 | 25.51270 | -49.20895 | 58173 ft | 1132 kts | 219° |
| 2026-05-05 17:06 | 25.39258 | -49.31975 | 58198 ft | 1132 kts | 219° |
| 2026-05-05 17:07 | 25.27139 | -49.43106 | 58223 ft | 1132 kts | 219° |
| 2026-05-05 17:07 | 25.15020 | -49.54211 | 58249 ft | 1132 kts | 219° |
| 2026-05-05 17:08 | 25.02862 | -49.65261 | 58275 ft | 1132 kts | 219° |
| 2026-05-05 17:08 | 24.90694 | -49.76300 | 58302 ft | 1132 kts | 219° |
| 2026-05-05 17:09 | 24.78553 | -49.87352 | 58329 ft | 1133 kts | 219° |
| 2026-05-05 17:09 | 24.66414 | -49.98425 | 58356 ft | 1133 kts | 219° |
| 2026-05-05 17:10 | 24.54269 | -50.09500 | 58383 ft | 1133 kts | 219° |
| 2026-05-05 17:10 | 24.44154 | -50.18675 | 58405 ft | 1133 kts | 219° |
| 2026-05-05 17:11 | 24.32017 | -50.29603 | 58431 ft | 1133 kts | 219° |
| 2026-05-05 17:11 | 24.19802 | -50.40554 | 58458 ft | 1134 kts | 219° |
| 2026-05-05 17:12 | 24.07602 | -50.51495 | 58486 ft | 1134 kts | 219° |
| 2026-05-05 17:12 | 23.95385 | -50.62455 | 58513 ft | 1133 kts | 219° |
| 2026-05-05 17:13 | 23.83159 | -50.73393 | 58543 ft | 1133 kts | 219° |
| 2026-05-05 17:13 | 23.70993 | -50.84216 | 58575 ft | 1133 kts | 218° |
| 2026-05-05 17:14 | 23.58738 | -50.95088 | 58610 ft | 1133 kts | 218° |
| 2026-05-05 17:14 | 23.46507 | -51.05934 | 58646 ft | 1133 kts | 218° |
| 2026-05-05 17:15 | 23.34263 | -51.16774 | 58684 ft | 1133 kts | 218° |
| 2026-05-05 17:15 | 23.22020 | -51.27566 | 58722 ft | 1133 kts | 218° |
| 2026-05-05 17:16 | 23.09840 | -51.38272 | 58761 ft | 1133 kts | 218° |
| 2026-05-05 17:16 | 22.97564 | -51.49053 | 58803 ft | 1133 kts | 218° |
| 2026-05-05 17:17 | 22.85297 | -51.59800 | 58846 ft | 1133 kts | 218° |
| 2026-05-05 17:17 | 22.73019 | -51.70516 | 58891 ft | 1133 kts | 218° |
| 2026-05-05 17:18 | 22.60799 | -51.81165 | 58937 ft | 1133 kts | 218° |
| 2026-05-05 17:18 | 22.48495 | -51.91869 | 58984 ft | 1133 kts | 218° |
| 2026-05-05 17:19 | 22.36194 | -52.02531 | 59030 ft | 1134 kts | 218° |
| 2026-05-05 17:19 | 22.23860 | -52.13204 | 59076 ft | 1134 kts | 218° |
| 2026-05-05 17:20 | 22.11547 | -52.23839 | 59121 ft | 1134 kts | 218° |
| 2026-05-05 17:20 | 21.99276 | -52.34403 | 59164 ft | 1134 kts | 218° |
| 2026-05-05 17:21 | 21.86949 | -52.44998 | 59205 ft | 1134 kts | 218° |
| 2026-05-05 17:22 | 21.68426 | -52.60870 | 59268 ft | 1134 kts | 218° |
| 2026-05-05 17:22 | 21.56057 | -52.71439 | 59309 ft | 1134 kts | 218° |
| 2026-05-05 17:23 | 21.43777 | -52.81912 | 59347 ft | 1134 kts | 218° |
| 2026-05-05 17:23 | 21.31405 | -52.92433 | 59383 ft | 1135 kts | 218° |
| 2026-05-05 17:24 | 21.19037 | -53.02934 | 59419 ft | 1135 kts | 218° |
| 2026-05-05 17:24 | 21.06629 | -53.13441 | 59449 ft | 1135 kts | 217° |
| 2026-05-05 17:25 | 20.94222 | -53.23926 | 59481 ft | 1135 kts | 217° |
| 2026-05-05 17:25 | 20.81805 | -53.34399 | 59512 ft | 1135 kts | 217° |
| 2026-05-05 17:26 | 20.69469 | -53.44776 | 59544 ft | 1136 kts | 217° |
| 2026-05-05 17:26 | 20.57017 | -53.55234 | 59579 ft | 1136 kts | 217° |
| 2026-05-05 17:27 | 20.44571 | -53.65661 | 59613 ft | 1137 kts | 217° |
| 2026-05-05 17:27 | 20.32118 | -53.76073 | 59647 ft | 1137 kts | 217° |
| 2026-05-05 17:28 | 20.19717 | -53.86422 | 59680 ft | 1138 kts | 217° |
| 2026-05-05 17:28 | 20.07243 | -53.96804 | 59712 ft | 1138 kts | 217° |
| 2026-05-05 17:29 | 19.94769 | -54.07171 | 59739 ft | 1138 kts | 217° |
| 2026-05-05 17:29 | 19.82275 | -54.17529 | 59761 ft | 1138 kts | 217° |
| 2026-05-05 17:30 | 19.69789 | -54.27862 | 59781 ft | 1138 kts | 217° |
| 2026-05-05 17:30 | 19.57297 | -54.38178 | 59799 ft | 1138 kts | 217° |
| 2026-05-05 17:31 | 19.44786 | -54.48487 | 59816 ft | 1138 kts | 217° |
| 2026-05-05 17:31 | 19.32330 | -54.58734 | 59832 ft | 1138 kts | 217° |
| 2026-05-05 17:32 | 19.19813 | -54.69007 | 59847 ft | 1139 kts | 217° |
| 2026-05-05 17:32 | 19.07273 | -54.79281 | 59863 ft | 1139 kts | 217° |
| 2026-05-05 17:33 | 18.94820 | -54.89463 | 59877 ft | 1139 kts | 217° |
| 2026-05-05 17:33 | 18.82261 | -54.99711 | 59894 ft | 1139 kts | 216° |
| 2026-05-05 17:34 | 18.69705 | -55.09939 | 59908 ft | 1139 kts | 216° |
| 2026-05-05 17:34 | 18.57136 | -55.20154 | 59922 ft | 1140 kts | 216° |
| 2026-05-05 17:35 | 18.44609 | -55.30261 | 59935 ft | 1140 kts | 216° |
| 2026-05-05 17:35 | 18.31987 | -55.40385 | 59949 ft | 1140 kts | 216° |
| 2026-05-05 17:36 | 18.19395 | -55.50535 | 59961 ft | 1140 kts | 216° |
| 2026-05-05 17:36 | 18.06824 | -55.60732 | 59973 ft | 1140 kts | 216° |
| 2026-05-05 17:37 | 17.94351 | -55.70877 | 59983 ft | 1141 kts | 216° |
| 2026-05-05 17:37 | 17.81797 | -55.81078 | 59998 ft | 1141 kts | 216° |
| 2026-05-05 17:38 | 17.69186 | -55.91247 | 60013 ft | 1141 kts | 216° |
| 2026-05-05 17:38 | 17.56558 | -56.01358 | 60034 ft | 1141 kts | 216° |
| 2026-05-05 17:39 | 17.43927 | -56.11458 | 60052 ft | 1141 kts | 216° |
| 2026-05-05 17:39 | 17.31399 | -56.21495 | 60076 ft | 1141 kts | 216° |
| 2026-05-05 17:40 | 17.18782 | -56.31610 | 60087 ft | 1141 kts | 216° |
| 2026-05-05 17:40 | 17.06165 | -56.41700 | 60088 ft | 1140 kts | 216° |
| 2026-05-05 17:41 | 16.93552 | -56.51734 | 60088 ft | 1140 kts | 216° |
| 2026-05-05 17:41 | 16.80939 | -56.61750 | 60088 ft | 1139 kts | 216° |
| 2026-05-05 17:42 | 16.68330 | -56.71765 | 60088 ft | 1139 kts | 216° |
| 2026-05-05 17:42 | 16.55726 | -56.81772 | 60088 ft | 1138 kts | 216° |
| 2026-05-05 17:43 | 16.43111 | -56.91756 | 60089 ft | 1138 kts | 216° |
| 2026-05-05 17:43 | 16.30570 | -57.01651 | 60088 ft | 1138 kts | 216° |
| 2026-05-05 17:44 | 16.17931 | -57.11618 | 60079 ft | 1138 kts | 216° |
| 2026-05-05 17:44 | 16.05310 | -57.21566 | 60078 ft | 1137 kts | 216° |
| 2026-05-05 17:45 | 15.92687 | -57.31493 | 60078 ft | 1135 kts | 216° |
| 2026-05-05 17:45 | 15.80162 | -57.41315 | 60078 ft | 1135 kts | 215° |
| 2026-05-05 17:45 | 15.73878 | -57.46241 | 60071 ft | 1119 kts | 215° |
| 2026-05-05 17:46 | 15.67750 | -57.51049 | 60074 ft | 1090 kts | 215° |
| 2026-05-05 17:46 | 15.61769 | -57.55742 | 60075 ft | 1062 kts | 215° |
| 2026-05-05 17:46 | 15.55955 | -57.60295 | 60076 ft | 1035 kts | 215° |
| 2026-05-05 17:46 | 15.50277 | -57.64734 | 60091 ft | 1008 kts | 215° |
| 2026-05-05 17:47 | 15.44741 | -57.69055 | 60099 ft | 981 kts | 215° |
| 2026-05-05 17:47 | 15.39366 | -57.73245 | 60101 ft | 954 kts | 215° |
| 2026-05-05 17:47 | 15.34123 | -57.77329 | 60090 ft | 927 kts | 215° |
| 2026-05-05 17:47 | 15.29080 | -57.81257 | 59444 ft | 912 kts | 215° |
| 2026-05-05 17:48 | 15.24021 | -57.85198 | 58203 ft | 899 kts | 215° |
| 2026-05-05 17:48 | 15.19065 | -57.89061 | 57316 ft | 883 kts | 215° |
| 2026-05-05 17:48 | 15.14201 | -57.92849 | 56472 ft | 867 kts | 215° |
| 2026-05-05 17:48 | 15.09413 | -57.96573 | 55628 ft | 852 kts | 215° |
| 2026-05-05 17:49 | 15.04717 | -58.00220 | 54823 ft | 836 kts | 215° |
| 2026-05-05 17:49 | 15.00099 | -58.03806 | 53994 ft | 820 kts | 215° |
| 2026-05-05 17:49 | 14.95584 | -58.07313 | 53155 ft | 804 kts | 216° |
| 2026-05-05 17:49 | 14.91152 | -58.10755 | 52315 ft | 788 kts | 216° |
| 2026-05-05 17:50 | 14.86820 | -58.14114 | 51496 ft | 772 kts | 216° |
| 2026-05-05 17:50 | 14.82563 | -58.17413 | 50687 ft | 757 kts | 216° |
| 2026-05-05 17:50 | 14.78391 | -58.20645 | 49890 ft | 742 kts | 217° |
| 2026-05-05 17:50 | 14.74351 | -58.23774 | 49117 ft | 729 kts | 217° |
| 2026-05-05 17:51 | 14.70333 | -58.26886 | 48303 ft | 716 kts | 217° |
| 2026-05-05 17:51 | 14.66366 | -58.29956 | 47376 ft | 706 kts | 217° |
| 2026-05-05 17:51 | 14.62455 | -58.32982 | 46477 ft | 697 kts | 217° |
| 2026-05-05 17:51 | 14.58607 | -58.35956 | 45619 ft | 687 kts | 218° |
| 2026-05-05 17:52 | 14.54802 | -58.38895 | 44779 ft | 678 kts | 218° |
| 2026-05-05 17:52 | 14.51050 | -58.41793 | 43954 ft | 669 kts | 218° |
| 2026-05-05 17:52 | 14.47338 | -58.44658 | 43128 ft | 662 kts | 218° |
| 2026-05-05 17:52 | 14.43667 | -58.47492 | 42276 ft | 656 kts | 218° |
| 2026-05-05 17:53 | 14.40034 | -58.50298 | 41444 ft | 650 kts | 218° |
| 2026-05-05 17:53 | 14.36432 | -58.53079 | 40645 ft | 644 kts | 218° |
| 2026-05-05 17:53 | 14.32858 | -58.55837 | 39867 ft | 638 kts | 218° |
| 2026-05-05 17:53 | 14.29321 | -58.58563 | 38989 ft | 631 kts | 218° |
| 2026-05-05 17:54 | 14.25827 | -58.61254 | 38073 ft | 620 kts | 217° |
| 2026-05-05 17:54 | 14.22457 | -58.63847 | 37188 ft | 605 kts | 217° |
| 2026-05-05 17:54 | 14.19110 | -58.66421 | 36288 ft | 593 kts | 217° |
| 2026-05-05 17:54 | 14.15824 | -58.68951 | 35376 ft | 587 kts | 217° |
| 2026-05-05 17:55 | 14.12555 | -58.71468 | 34478 ft | 585 kts | 217° |
| 2026-05-05 17:55 | 14.09284 | -58.73987 | 33599 ft | 586 kts | 217° |
| 2026-05-05 17:55 | 14.06024 | -58.76494 | 32994 ft | 581 kts | 217° |
| 2026-05-05 17:55 | 14.02793 | -58.78975 | 32500 ft | 577 kts | 217° |
| 2026-05-05 17:56 | 13.99580 | -58.81441 | 31814 ft | 576 kts | 217° |
| 2026-05-05 17:56 | 13.96380 | -58.83899 | 31053 ft | 567 kts | 216° |
| 2026-05-05 17:56 | 13.93241 | -58.86311 | 30164 ft | 559 kts | 216° |
| 2026-05-05 17:56 | 13.90138 | -58.88694 | 29229 ft | 554 kts | 216° |
| 2026-05-05 17:57 | 13.87100 | -58.91023 | 28414 ft | 548 kts | 216° |
| 2026-05-05 17:57 | 13.84061 | -58.93353 | 27626 ft | 541 kts | 216° |
| 2026-05-05 17:57 | 13.81059 | -58.95654 | 26849 ft | 535 kts | 216° |
| 2026-05-05 17:57 | 13.78093 | -58.97929 | 26081 ft | 527 kts | 216° |
| 2026-05-05 17:58 | 13.75171 | -59.00169 | 25322 ft | 520 kts | 216° |
| 2026-05-05 17:58 | 13.72287 | -59.02377 | 24570 ft | 511 kts | 216° |
| 2026-05-05 17:58 | 13.69457 | -59.04543 | 23827 ft | 503 kts | 216° |
| 2026-05-05 17:58 | 13.67606 | -59.05961 | 23336 ft | 496 kts | 216° |
| 2026-05-05 17:59 | 13.64855 | -59.08068 | 22486 ft | 490 kts | 216° |
| 2026-05-05 17:59 | 13.62138 | -59.10148 | 21606 ft | 484 kts | 216° |
| 2026-05-05 17:59 | 13.59447 | -59.12206 | 20656 ft | 481 kts | 216° |
| 2026-05-05 17:59 | 13.56760 | -59.14259 | 19647 ft | 480 kts | 216° |
| 2026-05-05 18:00 | 13.54082 | -59.16307 | 18646 ft | 479 kts | 216° |
| 2026-05-05 18:00 | 13.51404 | -59.18355 | 17655 ft | 479 kts | 216° |
| 2026-05-05 18:00 | 13.48759 | -59.20378 | 16678 ft | 467 kts | 216° |
| 2026-05-05 18:00 | 13.46184 | -59.22344 | 15700 ft | 456 kts | 216° |
| 2026-05-05 18:01 | 13.43663 | -59.24269 | 14724 ft | 448 kts | 216° |
| 2026-05-05 18:01 | 13.41157 | -59.26183 | 13899 ft | 447 kts | 215° |
| 2026-05-05 18:01 | 13.38708 | -59.28054 | 13194 ft | 443 kts | 215° |
| 2026-05-05 18:01 | 13.36243 | -59.29935 | 12492 ft | 439 kts | 215° |
| 2026-05-05 18:02 | 13.33789 | -59.31808 | 11785 ft | 426 kts | 215° |
| 2026-05-05 18:02 | 13.31414 | -59.33619 | 11078 ft | 423 kts | 215° |
| 2026-05-05 18:02 | 13.29088 | -59.35393 | 10417 ft | 419 kts | 215° |
| 2026-05-05 18:02 | 13.26778 | -59.37156 | 10099 ft | 411 kts | 215° |
| 2026-05-05 18:03 | 13.24472 | -59.38912 | 10077 ft | 412 kts | 214° |
| 2026-05-05 18:03 | 13.22169 | -59.40666 | 10080 ft | 412 kts | 214° |
| 2026-05-05 18:03 | 13.19878 | -59.42397 | 10078 ft | 399 kts | 212° |
| 2026-05-05 18:03 | 13.17543 | -59.43747 | 10076 ft | 372 kts | 203° |
| 2026-05-05 18:04 | 13.15253 | -59.44724 | 10034 ft | 342 kts | 199° |
| 2026-05-05 18:04 | 13.13142 | -59.45669 | 9650 ft | 322 kts | 202° |
| 2026-05-05 18:04 | 13.11163 | -59.46602 | 9005 ft | 312 kts | 202° |
| 2026-05-05 18:04 | 13.09212 | -59.47507 | 8336 ft | 304 kts | 201° |
| 2026-05-05 18:05 | 13.07302 | -59.48387 | 7664 ft | 298 kts | 201° |
| 2026-05-05 18:05 | 13.05422 | -59.49251 | 6993 ft | 294 kts | 201° |
| 2026-05-05 18:05 | 13.03562 | -59.50104 | 6328 ft | 292 kts | 201° |
| 2026-05-05 18:05 | 13.01802 | -59.51142 | 5659 ft | 296 kts | 223° |
| 2026-05-05 18:06 | 13.00744 | -59.52942 | 5125 ft | 298 kts | 250° |
| 2026-05-05 18:06 | 13.00328 | -59.54275 | 4777 ft | 296 kts | 252° |
| 2026-05-05 18:06 | 12.99579 | -59.56978 | 4045 ft | 294 kts | 253° |
| 2026-05-05 18:06 | 12.99046 | -59.58981 | 3640 ft | 288 kts | 254° |
| 2026-05-05 18:07 | 12.98529 | -59.60943 | 3278 ft | 282 kts | 254° |
| 2026-05-05 18:07 | 12.98036 | -59.62868 | 2896 ft | 277 kts | 260° |
| 2026-05-05 18:07 | 12.98183 | -59.64774 | 2553 ft | 272 kts | 296° |
| 2026-05-05 18:07 | 12.99326 | -59.66179 | 2480 ft | 248 kts | 335° |
| 2026-05-05 18:08 | 13.00852 | -59.66773 | 2490 ft | 227 kts | 348° |
| 2026-05-05 18:08 | 13.02389 | -59.66920 | 2483 ft | 221 kts | 21° |
| 2026-05-05 18:08 | 13.03605 | -59.66077 | 2493 ft | 211 kts | 61° |
| 2026-05-05 18:08 | 13.03949 | -59.64671 | 2503 ft | 206 kts | 91° |
| 2026-05-05 18:09 | 13.04120 | -59.63214 | 2506 ft | 206 kts | 79° |
| 2026-05-05 18:09 | 13.04403 | -59.61771 | 2347 ft | 206 kts | 79° |
| 2026-05-05 18:09 | 13.04720 | -59.60363 | 2086 ft | 205 kts | 77° |
| 2026-05-05 18:09 | 13.05069 | -59.58944 | 1814 ft | 205 kts | 77° |
| 2026-05-05 18:10 | 13.05405 | -59.57584 | 1548 ft | 183 kts | 77° |
| 2026-05-05 18:10 | 13.05713 | -59.56334 | 1312 ft | 181 kts | 78° |
| 2026-05-05 18:10 | 13.06021 | -59.55083 | 1071 ft | 181 kts | 78° |
| 2026-05-05 18:10 | 13.06329 | -59.53834 | 830 ft | 180 kts | 78° |
| 2026-05-05 18:11 | 13.06644 | -59.52593 | 592 ft | 180 kts | 78° |
| 2026-05-05 18:11 | 13.06947 | -59.51350 | 343 ft | 179 kts | 78° |
| 2026-05-05 18:11 | 13.07252 | -59.50114 | 183 ft | 175 kts | 78° |
| 2026-05-05 18:11 | 13.07520 | -59.49006 | 181 ft | 123 kts | 76° |
| 2026-05-05 18:12 | 13.07636 | -59.48534 | 181 ft | 37 kts | 76° |
| 2026-05-05 18:12 | 13.07673 | -59.48385 | 181 ft | 17 kts | 75° |
| 2026-05-05 18:12 | 13.07699 | -59.48339 | 181 ft | 7 kts | 19° |
| 2026-05-05 18:12 | 13.07756 | -59.48347 | 181 ft | 8 kts | 345° |
| 2026-05-05 18:13 | 13.07817 | -59.48364 | 181 ft | 10 kts | 346° |
| 2026-05-05 18:13 | 13.07862 | -59.48381 | 181 ft | 3 kts | 316° |
| 2026-05-05 18:13 | 13.07865 | -59.48403 | 181 ft | 1 kts | 254° |
| 2026-05-05 18:13 | 13.07865 | -59.48406 | 181 ft | 0 kts | 254° |
| 2026-05-05 18:14 | 13.07864 | -59.48408 | 181 ft | 0 kts | 254° |
| 2026-05-05 18:14 | 13.07863 | -59.48412 | 181 ft | 2 kts | 254° |
| 2026-05-05 18:15 | 13.07857 | -59.48435 | 181 ft | 5 kts | 254° |
| 2026-05-05 18:15 | 13.07852 | -59.48464 | 181 ft | 2 kts | 278° |
| 2026-05-05 18:15 | 13.07872 | -59.48476 | 181 ft | 5 kts | 343° |
| 2026-05-05 18:15 | 13.07913 | -59.48487 | 181 ft | 7 kts | 346° |
| 2026-05-05 18:16 | 13.07942 | -59.48494 | 181 ft | 1 kts | 346° |
| 2026-05-05 18:16 | 13.07944 | -59.48495 | 181 ft | 0 kts | 346° |